sensor_id;sensor_type;location;lat;lon;timestamp;temperature;humidity
19941;DHT22;10132;50.864;5.176;2023-09-19T00:00:43;15.80;99.90
19941;DHT22;10132;50.864;5.176;2023-09-19T00:02:52;15.90;99.90
19941;DHT22;10132;50.864;5.176;2023-09-19T00:04:55;15.90;99.90
19941;DHT22;10132;50.864;5.176;2023-09-19T00:06:57;15.90;99.90
19941;DHT22;10132;50.864;5.176;2023-09-19T00:09:00;15.90;99.90
19941;DHT22;10132;50.864;5.176;2023-09-19T00:11:03;16.00;99.90
19941;DHT22;10132;50.864;5.176;2023-09-19T00:13:04;15.90;99.90
19941;DHT22;10132;50.864;5.176;2023-09-19T00:15:08;15.90;99.90
19941;DHT22;10132;50.864;5.176;2023-09-19T00:17:12;15.80;99.90
19941;DHT22;10132;50.864;5.176;2023-09-19T00:19:17;15.80;99.90
19941;DHT22;10132;50.864;5.176;2023-09-19T00:21:22;15.80;99.90
19941;DHT22;10132;50.864;5.176;2023-09-19T00:23:24;15.80;99.90
19941;DHT22;10132;50.864;5.176;2023-09-19T00:25:27;15.70;99.90
19941;DHT22;10132;50.864;5.176;2023-09-19T00:27:28;15.70;99.90
19941;DHT22;10132;50.864;5.176;2023-09-19T00:29:31;15.70;99.90
19941;DHT22;10132;50.864;5.176;2023-09-19T00:31:34;15.80;99.90
19941;DHT22;10132;50.864;5.176;2023-09-19T00:33:39;15.80;99.90
19941;DHT22;10132;50.864;5.176;2023-09-19T00:35:47;15.80;99.90
19941;DHT22;10132;50.864;5.176;2023-09-19T00:37:48;15.80;99.90
19941;DHT22;10132;50.864;5.176;2023-09-19T00:39:51;15.80;99.90
19941;DHT22;10132;50.864;5.176;2023-09-19T00:41:53;15.80;99.90
19941;DHT22;10132;50.864;5.176;2023-09-19T00:43:55;15.80;99.90
19941;DHT22;10132;50.864;5.176;2023-09-19T00:45:58;15.80;99.90
19941;DHT22;10132;50.864;5.176;2023-09-19T00:48:02;15.80;99.90
19941;DHT22;10132;50.864;5.176;2023-09-19T00:50:15;15.80;99.90
19941;DHT22;10132;50.864;5.176;2023-09-19T00:52:18;15.70;99.90
19941;DHT22;10132;50.864;5.176;2023-09-19T00:54:22;15.70;99.90
19941;DHT22;10132;50.864;5.176;2023-09-19T00:56:25;15.70;99.90
19941;DHT22;10132;50.864;5.176;2023-09-19T00:58:27;15.60;99.90
19941;DHT22;10132;50.864;5.176;2023-09-19T01:00:34;15.60;99.90
19941;DHT22;10132;50.864;5.176;2023-09-19T01:02:37;15.60;99.90
19941;DHT22;10132;50.864;5.176;2023-09-19T01:04:40;15.50;99.90
19941;DHT22;10132;50.864;5.176;2023-09-19T01:06:44;15.50;99.90
19941;DHT22;10132;50.864;5.176;2023-09-19T01:08:48;15.50;99.90
19941;DHT22;10132;50.864;5.176;2023-09-19T01:10:54;15.50;99.90
19941;DHT22;10132;50.864;5.176;2023-09-19T01:13:02;15.50;99.90
19941;DHT22;10132;50.864;5.176;2023-09-19T01:15:14;15.60;99.90
19941;DHT22;10132;50.864;5.176;2023-09-19T01:17:25;15.60;99.90
19941;DHT22;10132;50.864;5.176;2023-09-19T01:22:33;15.60;99.90
19941;DHT22;10132;50.864;5.176;2023-09-19T01:27:49;15.60;99.90
19941;DHT22;10132;50.864;5.176;2023-09-19T01:30:08;15.60;99.90
19941;DHT22;10132;50.864;5.176;2023-09-19T01:32:15;15.60;99.90
19941;DHT22;10132;50.864;5.176;2023-09-19T01:34:17;15.50;99.90
19941;DHT22;10132;50.864;5.176;2023-09-19T01:36:22;15.50;99.90
19941;DHT22;10132;50.864;5.176;2023-09-19T01:38:24;15.50;99.90
19941;DHT22;10132;50.864;5.176;2023-09-19T01:40:28;15.60;99.90
19941;DHT22;10132;50.864;5.176;2023-09-19T01:42:37;15.60;99.90
19941;DHT22;10132;50.864;5.176;2023-09-19T01:44:51;15.60;99.90
19941;DHT22;10132;50.864;5.176;2023-09-19T01:46:59;15.50;99.90
19941;DHT22;10132;50.864;5.176;2023-09-19T01:49:18;15.40;99.90
19941;DHT22;10132;50.864;5.176;2023-09-19T01:51:30;15.40;99.90
19941;DHT22;10132;50.864;5.176;2023-09-19T01:53:36;15.40;99.90
19941;DHT22;10132;50.864;5.176;2023-09-19T01:55:47;15.50;99.90
19941;DHT22;10132;50.864;5.176;2023-09-19T01:58:01;15.40;99.90
19941;DHT22;10132;50.864;5.176;2023-09-19T02:00:07;15.30;99.90
19941;DHT22;10132;50.864;5.176;2023-09-19T02:02:15;15.20;99.90
19941;DHT22;10132;50.864;5.176;2023-09-19T02:04:19;15.20;99.90
19941;DHT22;10132;50.864;5.176;2023-09-19T02:06:24;15.20;99.90
19941;DHT22;10132;50.864;5.176;2023-09-19T02:08:27;15.20;99.90
19941;DHT22;10132;50.864;5.176;2023-09-19T02:10:30;15.10;99.90
19941;DHT22;10132;50.864;5.176;2023-09-19T02:12:33;15.10;99.90
19941;DHT22;10132;50.864;5.176;2023-09-19T02:14:36;15.00;99.90
19941;DHT22;10132;50.864;5.176;2023-09-19T02:16:39;15.00;99.90
19941;DHT22;10132;50.864;5.176;2023-09-19T02:18:43;15.00;99.90
19941;DHT22;10132;50.864;5.176;2023-09-19T02:20:45;14.90;99.90
19941;DHT22;10132;50.864;5.176;2023-09-19T02:22:48;14.90;99.90
19941;DHT22;10132;50.864;5.176;2023-09-19T02:24:51;14.80;99.90
19941;DHT22;10132;50.864;5.176;2023-09-19T02:26:54;14.80;99.90
19941;DHT22;10132;50.864;5.176;2023-09-19T02:28:57;14.80;99.90
19941;DHT22;10132;50.864;5.176;2023-09-19T02:31:00;14.80;99.90
19941;DHT22;10132;50.864;5.176;2023-09-19T02:33:04;14.80;99.90
19941;DHT22;10132;50.864;5.176;2023-09-19T02:35:10;14.80;99.90
19941;DHT22;10132;50.864;5.176;2023-09-19T02:37:14;14.80;99.90
19941;DHT22;10132;50.864;5.176;2023-09-19T02:39:17;14.90;99.90
19941;DHT22;10132;50.864;5.176;2023-09-19T02:41:20;14.80;99.90
19941;DHT22;10132;50.864;5.176;2023-09-19T02:43:22;14.80;99.90
19941;DHT22;10132;50.864;5.176;2023-09-19T02:45:25;14.80;99.90
19941;DHT22;10132;50.864;5.176;2023-09-19T02:47:27;14.80;99.90
19941;DHT22;10132;50.864;5.176;2023-09-19T02:49:32;14.80;99.90
19941;DHT22;10132;50.864;5.176;2023-09-19T02:51:36;14.80;99.90
19941;DHT22;10132;50.864;5.176;2023-09-19T02:53:39;14.70;99.90
19941;DHT22;10132;50.864;5.176;2023-09-19T02:55:43;14.70;99.90
19941;DHT22;10132;50.864;5.176;2023-09-19T02:57:46;14.70;99.90
19941;DHT22;10132;50.864;5.176;2023-09-19T02:59:49;14.70;99.90
19941;DHT22;10132;50.864;5.176;2023-09-19T03:01:51;14.70;99.90
19941;DHT22;10132;50.864;5.176;2023-09-19T03:03:55;14.70;99.90
19941;DHT22;10132;50.864;5.176;2023-09-19T03:06:00;14.70;99.90
19941;DHT22;10132;50.864;5.176;2023-09-19T03:08:07;14.70;99.90
19941;DHT22;10132;50.864;5.176;2023-09-19T03:10:09;14.70;99.90
19941;DHT22;10132;50.864;5.176;2023-09-19T03:12:10;14.70;99.90
19941;DHT22;10132;50.864;5.176;2023-09-19T03:14:17;14.70;99.90
19941;DHT22;10132;50.864;5.176;2023-09-19T03:16:21;14.70;99.90
19941;DHT22;10132;50.864;5.176;2023-09-19T03:18:23;14.70;99.90
19941;DHT22;10132;50.864;5.176;2023-09-19T03:20:25;14.70;99.90
19941;DHT22;10132;50.864;5.176;2023-09-19T03:22:28;14.60;99.90
19941;DHT22;10132;50.864;5.176;2023-09-19T03:24:31;14.70;99.90
19941;DHT22;10132;50.864;5.176;2023-09-19T03:26:35;14.70;99.90
19941;DHT22;10132;50.864;5.176;2023-09-19T03:28:37;14.80;99.90
19941;DHT22;10132;50.864;5.176;2023-09-19T03:30:39;14.80;99.90
19941;DHT22;10132;50.864;5.176;2023-09-19T03:32:47;14.80;99.90
19941;DHT22;10132;50.864;5.176;2023-09-19T03:34:51;14.70;99.90
19941;DHT22;10132;50.864;5.176;2023-09-19T03:36:53;14.70;99.90
19941;DHT22;10132;50.864;5.176;2023-09-19T03:38:56;14.80;99.90
19941;DHT22;10132;50.864;5.176;2023-09-19T03:41:01;14.80;99.90
19941;DHT22;10132;50.864;5.176;2023-09-19T03:43:03;14.80;99.90
19941;DHT22;10132;50.864;5.176;2023-09-19T03:45:07;14.80;99.90
19941;DHT22;10132;50.864;5.176;2023-09-19T03:47:12;14.90;99.90
19941;DHT22;10132;50.864;5.176;2023-09-19T03:49:14;14.90;99.90
19941;DHT22;10132;50.864;5.176;2023-09-19T03:51:26;15.00;99.90
19941;DHT22;10132;50.864;5.176;2023-09-19T03:53:28;15.00;99.90
19941;DHT22;10132;50.864;5.176;2023-09-19T03:55:29;15.00;99.90
19941;DHT22;10132;50.864;5.176;2023-09-19T03:57:35;15.00;99.90
19941;DHT22;10132;50.864;5.176;2023-09-19T03:59:37;15.00;99.90
19941;DHT22;10132;50.864;5.176;2023-09-19T04:01:39;15.10;99.90
19941;DHT22;10132;50.864;5.176;2023-09-19T04:03:42;15.00;99.90
19941;DHT22;10132;50.864;5.176;2023-09-19T04:05:52;15.00;99.90
19941;DHT22;10132;50.864;5.176;2023-09-19T04:07:53;15.00;99.90
19941;DHT22;10132;50.864;5.176;2023-09-19T04:09:56;15.00;99.90
19941;DHT22;10132;50.864;5.176;2023-09-19T04:11:58;15.00;99.90
19941;DHT22;10132;50.864;5.176;2023-09-19T04:14:04;15.00;99.90
19941;DHT22;10132;50.864;5.176;2023-09-19T04:16:08;14.90;99.90
19941;DHT22;10132;50.864;5.176;2023-09-19T04:18:11;15.00;99.90
19941;DHT22;10132;50.864;5.176;2023-09-19T04:20:15;14.90;99.90
19941;DHT22;10132;50.864;5.176;2023-09-19T04:22:18;14.90;99.90
19941;DHT22;10132;50.864;5.176;2023-09-19T04:24:21;14.90;99.90
19941;DHT22;10132;50.864;5.176;2023-09-19T04:26:24;14.90;99.90
19941;DHT22;10132;50.864;5.176;2023-09-19T04:28:26;14.90;99.90
19941;DHT22;10132;50.864;5.176;2023-09-19T04:30:30;14.80;99.90
19941;DHT22;10132;50.864;5.176;2023-09-19T04:32:32;14.70;99.90
19941;DHT22;10132;50.864;5.176;2023-09-19T04:34:36;14.70;99.90
19941;DHT22;10132;50.864;5.176;2023-09-19T04:36:39;14.70;99.90
19941;DHT22;10132;50.864;5.176;2023-09-19T04:38:41;14.70;99.90
19941;DHT22;10132;50.864;5.176;2023-09-19T04:40:44;14.60;99.90
19941;DHT22;10132;50.864;5.176;2023-09-19T04:42:53;14.60;99.90
19941;DHT22;10132;50.864;5.176;2023-09-19T04:44:57;14.50;99.90
19941;DHT22;10132;50.864;5.176;2023-09-19T04:49:40;14.50;99.90
19941;DHT22;10132;50.864;5.176;2023-09-19T04:51:42;14.40;99.90
19941;DHT22;10132;50.864;5.176;2023-09-19T04:53:47;14.50;99.90
19941;DHT22;10132;50.864;5.176;2023-09-19T04:55:51;14.50;99.90
19941;DHT22;10132;50.864;5.176;2023-09-19T04:57:56;14.50;99.90
19941;DHT22;10132;50.864;5.176;2023-09-19T04:59:58;14.60;99.90
19941;DHT22;10132;50.864;5.176;2023-09-19T05:02:00;14.50;99.90
19941;DHT22;10132;50.864;5.176;2023-09-19T05:04:03;14.40;99.90
19941;DHT22;10132;50.864;5.176;2023-09-19T05:06:07;14.40;99.90
19941;DHT22;10132;50.864;5.176;2023-09-19T05:08:09;14.40;99.90
19941;DHT22;10132;50.864;5.176;2023-09-19T05:10:11;14.30;99.90
19941;DHT22;10132;50.864;5.176;2023-09-19T05:12:13;14.30;99.90
19941;DHT22;10132;50.864;5.176;2023-09-19T05:14:19;14.30;99.90
19941;DHT22;10132;50.864;5.176;2023-09-19T05:16:21;14.30;99.90
19941;DHT22;10132;50.864;5.176;2023-09-19T05:18:24;14.30;99.90
19941;DHT22;10132;50.864;5.176;2023-09-19T05:20:26;14.40;99.90
19941;DHT22;10132;50.864;5.176;2023-09-19T05:22:34;14.40;99.90
19941;DHT22;10132;50.864;5.176;2023-09-19T05:24:36;14.40;99.90
19941;DHT22;10132;50.864;5.176;2023-09-19T05:26:40;14.40;99.90
19941;DHT22;10132;50.864;5.176;2023-09-19T05:28:42;14.40;99.90
19941;DHT22;10132;50.864;5.176;2023-09-19T05:30:44;14.30;99.90
19941;DHT22;10132;50.864;5.176;2023-09-19T05:32:48;14.40;99.90
19941;DHT22;10132;50.864;5.176;2023-09-19T05:34:49;14.30;99.90
19941;DHT22;10132;50.864;5.176;2023-09-19T05:36:53;14.30;99.90
19941;DHT22;10132;50.864;5.176;2023-09-19T05:38:57;14.30;99.90
19941;DHT22;10132;50.864;5.176;2023-09-19T05:41:00;14.30;99.90
19941;DHT22;10132;50.864;5.176;2023-09-19T05:43:04;14.30;99.90
19941;DHT22;10132;50.864;5.176;2023-09-19T05:45:08;14.40;99.90
19941;DHT22;10132;50.864;5.176;2023-09-19T05:47:12;14.30;99.90
19941;DHT22;10132;50.864;5.176;2023-09-19T05:49:15;14.30;99.90
19941;DHT22;10132;50.864;5.176;2023-09-19T05:51:18;14.30;99.90
19941;DHT22;10132;50.864;5.176;2023-09-19T05:53:22;14.20;99.90
19941;DHT22;10132;50.864;5.176;2023-09-19T05:55:25;14.30;99.90
19941;DHT22;10132;50.864;5.176;2023-09-19T05:57:29;14.30;99.90
19941;DHT22;10132;50.864;5.176;2023-09-19T05:59:31;14.30;99.90
19941;DHT22;10132;50.864;5.176;2023-09-19T06:01:34;14.30;99.90
19941;DHT22;10132;50.864;5.176;2023-09-19T06:03:35;14.30;99.90
19941;DHT22;10132;50.864;5.176;2023-09-19T06:05:38;14.30;99.90
19941;DHT22;10132;50.864;5.176;2023-09-19T06:07:41;14.30;99.90
19941;DHT22;10132;50.864;5.176;2023-09-19T06:09:44;14.30;99.90
19941;DHT22;10132;50.864;5.176;2023-09-19T06:11:48;14.40;99.90
19941;DHT22;10132;50.864;5.176;2023-09-19T06:13:50;14.50;99.90
19941;DHT22;10132;50.864;5.176;2023-09-19T06:15:54;14.50;99.90
19941;DHT22;10132;50.864;5.176;2023-09-19T06:17:57;14.50;99.90
19941;DHT22;10132;50.864;5.176;2023-09-19T06:20:00;14.40;99.90
19941;DHT22;10132;50.864;5.176;2023-09-19T06:22:05;14.50;99.90
19941;DHT22;10132;50.864;5.176;2023-09-19T06:24:08;14.50;99.90
19941;DHT22;10132;50.864;5.176;2023-09-19T06:26:12;14.50;99.90
19941;DHT22;10132;50.864;5.176;2023-09-19T06:28:15;14.40;99.90
19941;DHT22;10132;50.864;5.176;2023-09-19T06:30:24;14.60;99.90
19941;DHT22;10132;50.864;5.176;2023-09-19T06:32:27;14.60;99.90
19941;DHT22;10132;50.864;5.176;2023-09-19T06:34:29;14.70;99.90
19941;DHT22;10132;50.864;5.176;2023-09-19T06:36:33;14.90;99.90
19941;DHT22;10132;50.864;5.176;2023-09-19T06:38:35;15.00;99.90
19941;DHT22;10132;50.864;5.176;2023-09-19T06:40:39;14.90;99.90
19941;DHT22;10132;50.864;5.176;2023-09-19T06:42:44;15.00;99.90
19941;DHT22;10132;50.864;5.176;2023-09-19T06:44:48;14.90;99.90
19941;DHT22;10132;50.864;5.176;2023-09-19T06:46:50;14.80;99.90
19941;DHT22;10132;50.864;5.176;2023-09-19T06:48:53;14.90;99.90
19941;DHT22;10132;50.864;5.176;2023-09-19T06:50:55;14.80;99.90
19941;DHT22;10132;50.864;5.176;2023-09-19T06:52:59;15.00;99.90
19941;DHT22;10132;50.864;5.176;2023-09-19T06:55:02;15.10;99.90
19941;DHT22;10132;50.864;5.176;2023-09-19T06:57:05;15.00;99.90
19941;DHT22;10132;50.864;5.176;2023-09-19T06:59:10;15.00;99.90
19941;DHT22;10132;50.864;5.176;2023-09-19T07:01:16;15.00;99.90
19941;DHT22;10132;50.864;5.176;2023-09-19T07:03:19;15.10;99.90
19941;DHT22;10132;50.864;5.176;2023-09-19T07:05:24;15.10;99.90
19941;DHT22;10132;50.864;5.176;2023-09-19T07:07:25;15.20;99.90
19941;DHT22;10132;50.864;5.176;2023-09-19T07:09:27;15.30;99.90
19941;DHT22;10132;50.864;5.176;2023-09-19T07:11:29;15.30;99.90
19941;DHT22;10132;50.864;5.176;2023-09-19T07:13:32;15.30;99.90
19941;DHT22;10132;50.864;5.176;2023-09-19T07:15:34;15.30;99.90
19941;DHT22;10132;50.864;5.176;2023-09-19T07:17:38;15.40;99.90
19941;DHT22;10132;50.864;5.176;2023-09-19T07:19:40;15.30;99.90
19941;DHT22;10132;50.864;5.176;2023-09-19T07:21:43;15.30;99.90
19941;DHT22;10132;50.864;5.176;2023-09-19T07:23:48;15.40;99.90
19941;DHT22;10132;50.864;5.176;2023-09-19T07:25:50;15.40;99.90
19941;DHT22;10132;50.864;5.176;2023-09-19T07:27:52;15.50;99.90
19941;DHT22;10132;50.864;5.176;2023-09-19T07:29:56;15.40;99.90
19941;DHT22;10132;50.864;5.176;2023-09-19T07:31:59;15.50;99.90
19941;DHT22;10132;50.864;5.176;2023-09-19T07:34:03;15.50;99.90
19941;DHT22;10132;50.864;5.176;2023-09-19T07:36:04;15.50;99.90
19941;DHT22;10132;50.864;5.176;2023-09-19T07:38:07;15.50;99.90
19941;DHT22;10132;50.864;5.176;2023-09-19T07:40:10;15.60;99.90
19941;DHT22;10132;50.864;5.176;2023-09-19T07:42:13;15.70;99.90
19941;DHT22;10132;50.864;5.176;2023-09-19T07:44:18;15.70;99.90
19941;DHT22;10132;50.864;5.176;2023-09-19T07:46:20;15.70;99.90
19941;DHT22;10132;50.864;5.176;2023-09-19T07:48:22;15.90;99.90
19941;DHT22;10132;50.864;5.176;2023-09-19T07:50:26;16.00;99.90
19941;DHT22;10132;50.864;5.176;2023-09-19T07:52:29;16.10;99.90
19941;DHT22;10132;50.864;5.176;2023-09-19T07:54:31;16.10;99.90
19941;DHT22;10132;50.864;5.176;2023-09-19T07:56:36;16.20;99.90
19941;DHT22;10132;50.864;5.176;2023-09-19T07:58:39;16.20;99.90
19941;DHT22;10132;50.864;5.176;2023-09-19T08:00:44;16.20;99.90
19941;DHT22;10132;50.864;5.176;2023-09-19T08:02:47;16.20;99.90
19941;DHT22;10132;50.864;5.176;2023-09-19T08:04:49;16.40;99.90
19941;DHT22;10132;50.864;5.176;2023-09-19T08:06:54;16.50;99.90
19941;DHT22;10132;50.864;5.176;2023-09-19T08:08:57;16.40;99.90
19941;DHT22;10132;50.864;5.176;2023-09-19T08:11:01;16.50;99.90
19941;DHT22;10132;50.864;5.176;2023-09-19T08:13:03;16.40;99.90
19941;DHT22;10132;50.864;5.176;2023-09-19T08:15:07;16.40;99.90
19941;DHT22;10132;50.864;5.176;2023-09-19T08:17:10;16.50;99.90
19941;DHT22;10132;50.864;5.176;2023-09-19T08:19:13;16.80;99.90
19941;DHT22;10132;50.864;5.176;2023-09-19T08:21:15;17.00;99.90
19941;DHT22;10132;50.864;5.176;2023-09-19T08:23:19;17.00;99.90
19941;DHT22;10132;50.864;5.176;2023-09-19T08:25:22;16.90;99.90
19941;DHT22;10132;50.864;5.176;2023-09-19T08:27:26;17.00;99.90
19941;DHT22;10132;50.864;5.176;2023-09-19T08:29:28;16.60;99.90
19941;DHT22;10132;50.864;5.176;2023-09-19T08:31:31;16.80;99.90
19941;DHT22;10132;50.864;5.176;2023-09-19T08:33:35;16.80;99.90
19941;DHT22;10132;50.864;5.176;2023-09-19T08:35:37;17.00;99.90
19941;DHT22;10132;50.864;5.176;2023-09-19T08:37:42;17.10;99.90
19941;DHT22;10132;50.864;5.176;2023-09-19T08:39:48;17.10;99.90
19941;DHT22;10132;50.864;5.176;2023-09-19T08:41:57;16.90;99.90
19941;DHT22;10132;50.864;5.176;2023-09-19T08:44:01;17.20;99.90
19941;DHT22;10132;50.864;5.176;2023-09-19T08:46:11;17.40;99.90
19941;DHT22;10132;50.864;5.176;2023-09-19T08:48:20;17.50;99.90
19941;DHT22;10132;50.864;5.176;2023-09-19T08:50:28;17.50;99.90
19941;DHT22;10132;50.864;5.176;2023-09-19T08:52:36;17.40;99.90
19941;DHT22;10132;50.864;5.176;2023-09-19T08:54:40;17.50;99.90
19941;DHT22;10132;50.864;5.176;2023-09-19T08:56:46;17.40;99.90
19941;DHT22;10132;50.864;5.176;2023-09-19T08:58:51;17.30;99.90
19941;DHT22;10132;50.864;5.176;2023-09-19T09:00:56;17.40;99.90
19941;DHT22;10132;50.864;5.176;2023-09-19T09:03:08;17.70;99.90
19941;DHT22;10132;50.864;5.176;2023-09-19T09:05:11;17.80;99.90
19941;DHT22;10132;50.864;5.176;2023-09-19T09:07:15;17.80;99.90
19941;DHT22;10132;50.864;5.176;2023-09-19T09:09:21;17.90;99.90
19941;DHT22;10132;50.864;5.176;2023-09-19T09:11:24;17.70;99.90
19941;DHT22;10132;50.864;5.176;2023-09-19T09:13:30;17.70;99.90
19941;DHT22;10132;50.864;5.176;2023-09-19T09:15:36;17.40;99.90
19941;DHT22;10132;50.864;5.176;2023-09-19T09:17:37;17.50;99.90
19941;DHT22;10132;50.864;5.176;2023-09-19T09:19:39;17.70;99.90
19941;DHT22;10132;50.864;5.176;2023-09-19T09:21:42;18.00;99.90
19941;DHT22;10132;50.864;5.176;2023-09-19T09:23:44;18.00;99.90
19941;DHT22;10132;50.864;5.176;2023-09-19T09:25:48;18.20;99.90
19941;DHT22;10132;50.864;5.176;2023-09-19T09:28:01;18.50;99.90
19941;DHT22;10132;50.864;5.176;2023-09-19T09:30:06;18.30;99.90
19941;DHT22;10132;50.864;5.176;2023-09-19T09:32:27;18.30;99.90
19941;DHT22;10132;50.864;5.176;2023-09-19T09:34:34;18.30;99.90
19941;DHT22;10132;50.864;5.176;2023-09-19T09:36:36;18.20;99.90
19941;DHT22;10132;50.864;5.176;2023-09-19T09:38:46;18.10;99.90
19941;DHT22;10132;50.864;5.176;2023-09-19T09:40:50;18.20;99.90
19941;DHT22;10132;50.864;5.176;2023-09-19T09:42:54;18.20;99.90
19941;DHT22;10132;50.864;5.176;2023-09-19T09:45:18;18.40;99.90
19941;DHT22;10132;50.864;5.176;2023-09-19T09:47:42;18.50;99.90
19941;DHT22;10132;50.864;5.176;2023-09-19T09:49:51;18.40;99.90
19941;DHT22;10132;50.864;5.176;2023-09-19T09:52:07;18.30;99.90
19941;DHT22;10132;50.864;5.176;2023-09-19T09:54:17;18.30;99.90
19941;DHT22;10132;50.864;5.176;2023-09-19T09:56:20;18.40;99.90
19941;DHT22;10132;50.864;5.176;2023-09-19T09:58:23;18.20;99.90
19941;DHT22;10132;50.864;5.176;2023-09-19T10:00:31;18.30;99.90
19941;DHT22;10132;50.864;5.176;2023-09-19T10:02:43;18.60;99.90
19941;DHT22;10132;50.864;5.176;2023-09-19T10:04:47;18.70;99.90
19941;DHT22;10132;50.864;5.176;2023-09-19T10:06:52;18.60;99.90
19941;DHT22;10132;50.864;5.176;2023-09-19T10:09:01;18.70;99.90
19941;DHT22;10132;50.864;5.176;2023-09-19T10:11:18;18.80;99.90
19941;DHT22;10132;50.864;5.176;2023-09-19T10:13:30;18.60;99.90
19941;DHT22;10132;50.864;5.176;2023-09-19T10:15:36;18.30;99.90
19941;DHT22;10132;50.864;5.176;2023-09-19T10:17:40;18.20;99.90
19941;DHT22;10132;50.864;5.176;2023-09-19T10:19:48;18.20;99.90
19941;DHT22;10132;50.864;5.176;2023-09-19T10:21:59;18.00;99.90
19941;DHT22;10132;50.864;5.176;2023-09-19T10:24:01;18.20;99.90
19941;DHT22;10132;50.864;5.176;2023-09-19T10:26:05;18.10;99.90
19941;DHT22;10132;50.864;5.176;2023-09-19T10:28:10;18.20;99.90
19941;DHT22;10132;50.864;5.176;2023-09-19T10:30:14;18.40;99.90
19941;DHT22;10132;50.864;5.176;2023-09-19T10:32:18;18.10;99.90
19941;DHT22;10132;50.864;5.176;2023-09-19T10:34:22;18.20;99.90
19941;DHT22;10132;50.864;5.176;2023-09-19T10:36:26;18.30;99.90
19941;DHT22;10132;50.864;5.176;2023-09-19T10:38:35;18.50;99.90
19941;DHT22;10132;50.864;5.176;2023-09-19T10:40:41;18.60;99.90
19941;DHT22;10132;50.864;5.176;2023-09-19T10:42:48;18.90;99.90
19941;DHT22;10132;50.864;5.176;2023-09-19T10:44:52;19.10;99.90
19941;DHT22;10132;50.864;5.176;2023-09-19T10:46:57;19.10;99.90
19941;DHT22;10132;50.864;5.176;2023-09-19T10:49:01;19.10;99.90
19941;DHT22;10132;50.864;5.176;2023-09-19T10:51:06;19.20;99.90
19941;DHT22;10132;50.864;5.176;2023-09-19T10:53:10;19.20;99.90
19941;DHT22;10132;50.864;5.176;2023-09-19T10:55:16;19.10;99.90
19941;DHT22;10132;50.864;5.176;2023-09-19T10:57:21;18.90;99.90
19941;DHT22;10132;50.864;5.176;2023-09-19T10:59:24;19.30;99.90
19941;DHT22;10132;50.864;5.176;2023-09-19T11:01:42;19.20;99.90
19941;DHT22;10132;50.864;5.176;2023-09-19T11:03:47;19.40;99.90
19941;DHT22;10132;50.864;5.176;2023-09-19T11:06:05;19.90;99.90
19941;DHT22;10132;50.864;5.176;2023-09-19T11:08:10;20.20;99.90
19941;DHT22;10132;50.864;5.176;2023-09-19T11:10:44;19.70;99.90
19941;DHT22;10132;50.864;5.176;2023-09-19T11:12:49;19.60;99.90
19941;DHT22;10132;50.864;5.176;2023-09-19T11:14:52;19.70;99.90
19941;DHT22;10132;50.864;5.176;2023-09-19T11:17:31;19.70;99.90
19941;DHT22;10132;50.864;5.176;2023-09-19T11:22:26;19.60;99.90
19941;DHT22;10132;50.864;5.176;2023-09-19T11:24:49;19.80;99.90
19941;DHT22;10132;50.864;5.176;2023-09-19T11:27:09;19.90;99.90
19941;DHT22;10132;50.864;5.176;2023-09-19T11:29:26;19.90;99.90
19941;DHT22;10132;50.864;5.176;2023-09-19T11:31:51;19.90;99.90
19941;DHT22;10132;50.864;5.176;2023-09-19T11:36:35;20.00;99.90
19941;DHT22;10132;50.864;5.176;2023-09-19T11:38:59;19.90;99.90
19941;DHT22;10132;50.864;5.176;2023-09-19T11:41:39;20.10;99.90
19941;DHT22;10132;50.864;5.176;2023-09-19T11:43:46;20.40;99.90
19941;DHT22;10132;50.864;5.176;2023-09-19T11:46:06;20.60;99.90
19941;DHT22;10132;50.864;5.176;2023-09-19T11:48:08;20.70;93.50
19941;DHT22;10132;50.864;5.176;2023-09-19T11:50:18;20.50;99.70
19941;DHT22;10132;50.864;5.176;2023-09-19T11:52:22;20.70;99.90
19941;DHT22;10132;50.864;5.176;2023-09-19T11:54:27;20.80;99.90
19941;DHT22;10132;50.864;5.176;2023-09-19T11:56:39;21.10;97.50
19941;DHT22;10132;50.864;5.176;2023-09-19T11:58:42;20.80;99.90
19941;DHT22;10132;50.864;5.176;2023-09-19T12:00:45;21.30;99.90
19941;DHT22;10132;50.864;5.176;2023-09-19T12:02:51;20.70;99.90
19941;DHT22;10132;50.864;5.176;2023-09-19T12:04:56;20.50;99.90
19941;DHT22;10132;50.864;5.176;2023-09-19T12:07:00;20.10;99.90
19941;DHT22;10132;50.864;5.176;2023-09-19T12:09:03;20.30;99.90
19941;DHT22;10132;50.864;5.176;2023-09-19T12:11:12;20.50;99.90
19941;DHT22;10132;50.864;5.176;2023-09-19T12:13:16;20.50;99.90
19941;DHT22;10132;50.864;5.176;2023-09-19T12:15:23;20.20;99.90
19941;DHT22;10132;50.864;5.176;2023-09-19T12:17:35;19.90;99.90
19941;DHT22;10132;50.864;5.176;2023-09-19T12:19:38;19.80;99.90
19941;DHT22;10132;50.864;5.176;2023-09-19T12:21:40;20.00;99.90
19941;DHT22;10132;50.864;5.176;2023-09-19T12:23:43;20.30;99.90
19941;DHT22;10132;50.864;5.176;2023-09-19T12:25:45;20.00;99.90
19941;DHT22;10132;50.864;5.176;2023-09-19T12:27:50;20.40;99.90
19941;DHT22;10132;50.864;5.176;2023-09-19T12:29:53;20.70;94.80
19941;DHT22;10132;50.864;5.176;2023-09-19T12:31:57;20.70;98.50
19941;DHT22;10132;50.864;5.176;2023-09-19T12:33:59;20.60;96.10
19941;DHT22;10132;50.864;5.176;2023-09-19T12:36:20;20.70;98.90
19941;DHT22;10132;50.864;5.176;2023-09-19T12:38:31;20.70;99.90
19941;DHT22;10132;50.864;5.176;2023-09-19T12:40:35;20.80;99.30
19941;DHT22;10132;50.864;5.176;2023-09-19T12:42:39;20.80;99.90
19941;DHT22;10132;50.864;5.176;2023-09-19T12:44:45;20.90;99.90
19941;DHT22;10132;50.864;5.176;2023-09-19T12:46:52;20.90;99.90
19941;DHT22;10132;50.864;5.176;2023-09-19T12:49:14;20.90;99.90
19941;DHT22;10132;50.864;5.176;2023-09-19T12:51:17;20.40;99.90
19941;DHT22;10132;50.864;5.176;2023-09-19T12:53:25;20.30;99.90
19941;DHT22;10132;50.864;5.176;2023-09-19T12:55:30;20.10;99.90
19941;DHT22;10132;50.864;5.176;2023-09-19T12:57:33;20.30;99.90
19941;DHT22;10132;50.864;5.176;2023-09-19T12:59:36;20.30;99.90
19941;DHT22;10132;50.864;5.176;2023-09-19T13:01:40;20.20;99.90
19941;DHT22;10132;50.864;5.176;2023-09-19T13:04:10;20.30;99.90
19941;DHT22;10132;50.864;5.176;2023-09-19T13:06:13;20.10;99.90
19941;DHT22;10132;50.864;5.176;2023-09-19T13:08:30;20.10;99.90
19941;DHT22;10132;50.864;5.176;2023-09-19T13:10:33;19.90;99.90
19941;DHT22;10132;50.864;5.176;2023-09-19T13:12:37;19.90;99.90
19941;DHT22;10132;50.864;5.176;2023-09-19T13:14:43;19.60;99.90
19941;DHT22;10132;50.864;5.176;2023-09-19T13:16:58;19.80;99.90
19941;DHT22;10132;50.864;5.176;2023-09-19T13:19:04;19.90;99.90
19941;DHT22;10132;50.864;5.176;2023-09-19T13:21:07;20.00;99.90
19941;DHT22;10132;50.864;5.176;2023-09-19T13:23:26;19.90;99.90
19941;DHT22;10132;50.864;5.176;2023-09-19T13:25:28;19.80;99.90